Time;durP1;ratioP1;P1;durP2;ratioP2;P2;SDS_P1;SDS_P2;PMS_P1;PMS_P2;Temp;Humidity;BMP_temperature;BMP_pressure;BME280_temperature;BME280_humidity;BME280_pressure;Samples;Min_cycle;Max_cycle;Signal;HPM_P1;HPM_P2
2021/08/28 00:03:28;;;;;;;28.88;13.28;;;;;;;13.98;100.00;100136.00;713924;1200;114671;-76
2021/08/28 00:18:31;;;;;;;22.08;10.88;;;;;;;13.90;100.00;100156.27;714128;1203;114268;-77
2021/08/28 00:33:33;;;;;;;29.83;13.23;;;;;;;13.76;100.00;100150.59;713972;1202;114836;-78
2021/08/28 00:48:35;;;;;;;18.23;10.33;;;;;;;13.50;100.00;100155.11;713905;1199;115210;-78
2021/08/28 01:03:44;;;;;;;32.50;14.25;;;;;;;13.45;100.00;100158.23;713825;1202;114228;-78
2021/08/28 01:18:49;;;;;;;25.67;11.47;;;;;;;13.47;100.00;100162.36;713971;1199;114950;-79
2021/08/28 01:33:53;;;;;;;20.40;10.60;;;;;;;13.42;100.00;100163.79;714089;1200;115706;-80
2021/08/28 01:48:57;;;;;;;16.05;8.20;;;;;;;13.28;100.00;100146.74;714319;1198;115197;-77
2021/08/28 02:04:00;;;;;;;14.60;8.33;;;;;;;13.12;100.00;100145.66;714505;1200;114692;-79
2021/08/28 02:19:17;;;;;;;19.05;5.53;;;;;;;12.94;100.00;100160.67;726828;1199;114669;-78
2021/08/28 02:34:21;;;;;;;11.85;5.70;;;;;;;12.87;100.00;100155.20;723016;1202;114017;-78
2021/08/28 02:49:24;;;;;;;7.30;5.10;;;;;;;12.67;100.00;100154.56;714756;1199;114277;-78
2021/08/28 03:04:28;;;;;;;7.07;4.73;;;;;;;12.37;100.00;100151.33;714751;1195;114074;-82
2021/08/28 03:19:31;;;;;;;14.87;7.43;;;;;;;12.36;100.00;100149.67;715625;1200;115537;-79
2021/08/28 03:34:34;;;;;;;12.23;7.90;;;;;;;12.33;100.00;100165.77;714333;1199;115559;-89
2021/08/28 03:49:36;;;;;;;28.73;11.30;;;;;;;12.28;100.00;100157.48;714535;1199;115776;-79
2021/08/28 04:04:39;;;;;;;26.68;11.30;;;;;;;12.37;100.00;100156.59;714077;1200;114657;-82
2021/08/28 04:19:41;;;;;;;18.03;9.65;;;;;;;12.29;100.00;100151.26;714041;1199;115824;-79
2021/08/28 04:34:43;;;;;;;16.33;8.13;;;;;;;12.34;100.00;100154.27;714031;1200;114630;-79
2021/08/28 04:49:45;;;;;;;14.40;8.00;;;;;;;12.53;100.00;100165.62;714533;1203;114195;-80
2021/08/28 05:04:47;;;;;;;20.90;9.93;;;;;;;12.59;100.00;100151.84;713870;1195;115686;-80
2021/08/28 05:19:49;;;;;;;20.52;8.00;;;;;;;12.41;100.00;100160.56;714260;1199;115189;-79
2021/08/28 05:34:54;;;;;;;24.80;12.30;;;;;;;12.59;100.00;100163.20;713949;1199;114254;-80
2021/08/28 05:49:57;;;;;;;16.18;9.70;;;;;;;13.11;100.00;100166.89;713949;1203;115499;-82
2021/08/28 06:04:59;;;;;;;11.75;8.00;;;;;;;13.51;100.00;100175.21;714589;1199;114299;-80
2021/08/28 06:20:03;;;;;;;25.60;13.13;;;;;;;13.83;100.00;100181.61;714063;1199;114642;-82
2021/08/28 06:35:09;;;;;;;17.63;11.88;;;;;;;14.14;100.00;100189.80;714254;1203;115855;-81
2021/08/28 06:50:11;;;;;;;22.95;13.78;;;;;;;14.46;100.00;100183.77;714239;1200;114329;-85
2021/08/28 07:05:13;;;;;;;32.70;20.90;;;;;;;14.77;100.00;100196.34;714889;1174;114375;-83
2021/08/28 07:20:16;;;;;;;26.10;14.90;;;;;;;15.30;100.00;100193.33;716094;1200;115427;-81
2021/08/28 07:35:18;;;;;;;30.88;16.68;;;;;;;15.66;100.00;100198.19;715834;1200;114665;-80
2021/08/28 07:50:21;;;;;;;50.63;24.50;;;;;;;16.24;100.00;100192.66;715312;1200;116012;-73
2021/08/28 08:05:24;;;;;;;34.53;19.60;;;;;;;16.74;100.00;100204.56;715182;1198;114378;-73
2021/08/28 08:20:26;;;;;;;23.28;12.03;;;;;;;17.31;100.00;100199.78;714531;1190;115102;-74
2021/08/28 08:35:28;;;;;;;20.80;14.03;;;;;;;17.93;100.00;100203.09;714901;1177;114370;-75
2021/08/28 08:50:32;;;;;;;7.70;6.27;;;;;;;18.17;100.00;100188.66;715529;1200;115502;-74
2021/08/28 09:05:35;;;;;;;8.33;6.08;;;;;;;18.52;100.00;100196.80;714735;1176;114332;-74
2021/08/28 09:20:38;;;;;;;7.87;5.60;;;;;;;18.93;100.00;100198.00;715470;1177;114610;-74
2021/08/28 09:35:49;;;;;;;8.73;5.60;;;;;;;19.30;100.00;100201.33;715190;1199;115649;-74
2021/08/28 09:50:54;;;;;;;6.90;3.95;;;;;;;19.90;100.00;100208.83;714398;1200;114313;-75
2021/08/28 10:06:16;;;;;;;7.75;5.33;;;;;;;20.31;100.00;100212.45;714332;1199;115265;-72
2021/08/28 10:21:20;;;;;;;5.38;4.60;;;;;;;20.61;100.00;100195.11;713821;1199;115405;-76
2021/08/28 10:36:23;;;;;;;8.80;4.30;;;;;;;21.38;100.00;100194.67;714561;1200;115673;-72
2021/08/28 10:51:39;;;;;;;10.00;5.53;;;;;;;22.90;100.00;100177.25;714969;1199;114138;-72
2021/08/28 11:06:41;;;;;;;5.20;4.23;;;;;;;23.72;95.70;100167.38;715067;1200;115782;-73
2021/08/28 11:21:51;;;;;;;6.60;4.65;;;;;;;23.93;91.96;100174.14;714557;1179;113959;-77
2021/08/28 11:37:28;;;;;;;5.35;3.00;;;;;;;25.37;88.38;100187.59;715519;1200;114963;-70
2021/08/28 11:52:36;;;;;;;2.53;2.18;;;;;;;25.30;82.42;100194.90;714899;1200;115046;-71
2021/08/28 12:07:40;;;;;;;8.63;5.00;;;;;;;24.89;79.53;100194.79;714529;1199;114977;-72
2021/08/28 12:22:46;;;;;;;8.40;5.78;;;;;;;24.46;79.95;100174.44;714745;1185;113891;-74
2021/08/28 12:37:49;;;;;;;5.45;2.23;;;;;;;23.96;79.37;100173.69;714882;1183;113784;-76
2021/08/28 12:52:51;;;;;;;4.50;3.00;;;;;;;23.63;79.33;100158.83;715142;1175;114184;-78
2021/08/28 13:07:56;;;;;;;2.43;1.90;;;;;;;23.93;78.02;100161.56;727541;1182;112577;-73
2021/08/28 13:23:09;;;;;;;5.60;2.68;;;;;;;24.19;77.38;100153.38;715073;1199;115497;-70
2021/08/28 13:38:11;;;;;;;3.08;2.15;;;;;;;24.00;76.97;100149.95;714704;1199;115359;-70
2021/08/28 13:53:14;;;;;;;4.40;3.10;;;;;;;23.31;75.48;100153.64;714677;1199;115432;-71
2021/08/28 14:08:17;;;;;;;3.13;2.48;;;;;;;23.37;73.88;100160.78;715064;1176;113698;-76
2021/08/28 14:23:20;;;;;;;4.03;2.47;;;;;;;22.64;73.04;100154.23;714327;1198;115282;-72
2021/08/28 14:38:23;;;;;;;5.80;3.90;;;;;;;22.24;74.95;100160.66;714794;1200;115135;-73
2021/08/28 14:53:25;;;;;;;4.95;3.10;;;;;;;21.89;76.93;100170.91;714752;1199;113815;-79
2021/08/28 15:08:27;;;;;;;5.40;4.10;;;;;;;21.52;79.74;100170.63;715466;1199;113879;-76
2021/08/28 15:23:30;;;;;;;12.75;7.03;;;;;;;21.33;81.27;100172.33;722532;1175;115019;-76
2021/08/28 15:38:32;;;;;;;18.30;9.77;;;;;;;20.98;81.66;100178.72;714573;1177;114408;-76
2021/08/28 15:53:34;;;;;;;13.70;10.38;;;;;;;20.70;82.39;100177.09;714768;1199;114802;-76
2021/08/28 16:08:36;;;;;;;20.20;10.60;;;;;;;20.51;84.05;100170.70;715178;1199;114636;-75
2021/08/28 16:23:39;;;;;;;18.40;11.97;;;;;;;20.43;87.26;100169.05;714649;1177;114171;-73
2021/08/28 16:38:42;;;;;;;34.63;18.93;;;;;;;20.27;89.55;100161.42;714277;1199;114575;-72
2021/08/28 16:53:44;;;;;;;48.75;26.95;;;;;;;19.99;90.86;100149.08;714590;1191;114030;-75
2021/08/28 17:08:48;;;;;;;57.65;28.50;;;;;;;19.82;92.74;100147.80;714894;1177;114135;-72
2021/08/28 17:23:51;;;;;;;44.90;20.53;;;;;;;18.98;95.51;100162.86;715076;1202;114929;-74
2021/08/28 17:38:54;;;;;;;64.40;25.73;;;;;;;18.22;99.11;100148.29;715136;1176;114353;-73
2021/08/28 17:53:57;;;;;;;64.08;32.25;;;;;;;18.00;100.00;100160.70;715197;1199;115450;-75
2021/08/28 18:08:59;;;;;;;73.18;36.60;;;;;;;17.70;100.00;100155.45;714992;1177;114709;-74
2021/08/28 18:24:01;;;;;;;39.03;21.48;;;;;;;17.24;100.00;100173.17;714875;1177;114464;-74
2021/08/28 18:39:05;;;;;;;94.13;43.93;;;;;;;17.06;100.00;100181.46;714880;1175;114149;-74
2021/08/28 18:54:08;;;;;;;70.77;35.77;;;;;;;16.76;100.00;100184.03;715143;1199;114366;-74
2021/08/28 19:09:13;;;;;;;65.70;33.73;;;;;;;16.51;100.00;100182.55;715183;1200;115620;-73
2021/08/28 19:24:15;;;;;;;52.45;29.93;;;;;;;16.36;100.00;100187.80;715060;1199;115962;-73
2021/08/28 19:39:17;;;;;;;43.48;26.33;;;;;;;16.33;100.00;100194.27;715330;1177;114605;-75
2021/08/28 19:54:20;;;;;;;58.80;27.60;;;;;;;16.29;100.00;100200.91;715730;1189;114717;-74
2021/08/28 20:09:22;;;;;;;47.47;25.07;;;;;;;16.17;100.00;100207.61;715494;1177;114280;-77
2021/08/28 20:24:24;;;;;;;59.88;31.78;;;;;;;15.79;100.00;100211.69;715212;1199;115082;-78
2021/08/28 20:39:27;;;;;;;38.40;20.63;;;;;;;15.59;100.00;100213.09;714841;1200;114841;-78
2021/08/28 20:54:29;;;;;;;23.38;14.70;;;;;;;15.23;100.00;100211.68;714767;1176;114648;-78
2021/08/28 21:09:34;;;;;;;23.85;15.00;;;;;;;15.12;100.00;100220.78;714876;1199;114735;-77
2021/08/28 21:24:37;;;;;;;30.25;16.28;;;;;;;15.10;100.00;100206.90;714868;1175;114411;-77
2021/08/28 21:39:40;;;;;;;26.05;15.08;;;;;;;14.88;100.00;100211.03;714637;1200;114337;-78
2021/08/28 21:54:42;;;;;;;28.18;15.38;;;;;;;14.54;100.00;100209.31;714893;1176;114388;-76
2021/08/28 22:09:45;;;;;;;25.68;15.25;;;;;;;14.46;100.00;100202.24;714720;1199;114301;-76
2021/08/28 22:24:47;;;;;;;28.25;16.73;;;;;;;14.63;100.00;100210.16;714567;1200;115352;-76
2021/08/28 22:39:50;;;;;;;30.98;18.58;;;;;;;14.64;100.00;100207.39;714641;1199;115658;-77
2021/08/28 22:54:52;;;;;;;27.67;16.43;;;;;;;14.49;100.00;100201.09;713925;1199;114395;-76
2021/08/28 23:09:54;;;;;;;42.18;25.60;;;;;;;14.41;100.00;100179.94;716026;1200;115575;-77
2021/08/28 23:24:57;;;;;;;34.20;19.50;;;;;;;14.28;100.00;100164.61;714552;1200;115237;-75
2021/08/28 23:39:59;;;;;;;34.60;19.10;;;;;;;14.35;100.00;100156.87;714087;1200;114923;-78
2021/08/28 23:55:01;;;;;;;52.13;21.95;;;;;;;14.27;100.00;100147.13;715094;1199;114288;-78
